createdAt,value
2023-01-11T00:00:05.501Z,3.65
2023-01-11T00:05:09.168Z,2.75
2023-01-11T00:10:08.150Z,2.67
2023-01-11T00:15:05.967Z,2.55
2023-01-11T00:20:03.513Z,2.63
2023-01-11T00:25:00.448Z,2.70
2023-01-11T00:29:58.141Z,2.45
2023-01-11T00:34:54.958Z,2.58
2023-01-11T00:39:51.988Z,2.28
2023-01-11T00:45:06.536Z,2.50
2023-01-11T00:50:04.799Z,2.30
2023-01-11T00:55:01.803Z,2.13
2023-01-11T00:59:58.706Z,2.33
2023-01-11T01:04:55.685Z,2.78
2023-01-11T01:09:53.196Z,2.28
2023-01-11T01:14:50.219Z,2.35
2023-01-11T01:19:47.012Z,2.45
2023-01-11T01:24:43.981Z,2.30
2023-01-11T01:29:41.609Z,3.03
2023-01-11T01:34:38.529Z,2.17
2023-01-11T01:39:35.444Z,2.05
2023-01-11T01:44:54.175Z,2.38
2023-01-11T01:49:51.405Z,2.70
2023-01-11T01:54:49.345Z,2.38
2023-01-11T01:59:51.130Z,2.42
2023-01-11T02:04:49.630Z,2.38
2023-01-11T02:09:52.166Z,2.15
2023-01-11T02:14:49.473Z,2.45
2023-01-11T02:19:55.210Z,2.50
2023-01-11T02:30:14.164Z,2.30
2023-01-11T02:35:20.336Z,2.50
2023-01-11T02:40:25.234Z,3.40
2023-01-11T02:45:37.658Z,3.23
2023-01-11T02:50:41.451Z,3.15
2023-01-11T02:55:41.920Z,3.13
2023-01-11T03:00:40.957Z,3.55
2023-01-11T03:05:41.789Z,3.63
2023-01-11T03:10:49.852Z,3.38
2023-01-11T03:16:03.818Z,3.33
2023-01-11T03:21:14.427Z,3.03
2023-01-11T03:26:20.280Z,3.40
2023-01-11T03:31:22.943Z,3.75
2023-01-11T03:36:23.343Z,3.60
2023-01-11T03:41:24.817Z,3.20
2023-01-11T03:46:28.123Z,3.80
2023-01-11T03:51:28.391Z,3.38
2023-01-11T03:56:32.899Z,3.45
2023-01-11T04:01:30.838Z,3.85
2023-01-11T04:06:27.870Z,4.30
2023-01-11T04:11:24.929Z,4.10
2023-01-11T04:16:22.179Z,4.03
2023-01-11T04:21:20.122Z,5.13
2023-01-11T04:26:17.501Z,4.45
2023-01-11T04:31:14.768Z,4.63
2023-01-11T04:36:15.160Z,4.53
2023-01-11T04:41:33.161Z,0.20
2023-01-11T04:46:31.411Z,0.00
2023-01-11T04:51:28.789Z,0.43
2023-01-11T04:56:31.583Z,0.40
2023-01-11T05:01:30.267Z,0.47
2023-01-11T05:06:45.072Z,0.68
2023-01-11T05:11:43.756Z,0.10
2023-01-11T05:16:52.275Z,0.30
2023-01-11T05:21:54.902Z,0.10
2023-01-11T05:27:25.310Z,0.05
2023-01-11T05:32:27.618Z,0.30
2023-01-11T05:37:33.580Z,0.28
2023-01-11T05:42:36.579Z,0.17
2023-01-11T05:47:34.373Z,0.60
2023-01-11T05:52:32.447Z,0.52
2023-01-11T05:57:30.558Z,0.38
2023-01-11T06:02:38.616Z,0.52
2023-01-11T06:07:39.160Z,0.70
2023-01-11T06:12:39.659Z,0.75
2023-01-11T06:17:37.883Z,0.10
2023-01-11T06:22:37.341Z,0.40
2023-01-11T06:27:40.079Z,0.22
2023-01-11T06:32:38.251Z,0.25
2023-01-11T06:37:38.540Z,0.00
2023-01-11T06:42:39.168Z,0.20
2023-01-11T06:47:44.325Z,0.47
2023-01-11T06:52:41.954Z,0.17
2023-01-11T06:57:43.024Z,0.38
2023-01-11T07:02:41.067Z,0.38
2023-01-11T07:07:38.625Z,0.20
2023-01-11T07:12:36.094Z,0.68
2023-01-11T07:17:36.420Z,0.15
2023-01-11T07:22:37.655Z,0.10
2023-01-11T07:27:34.586Z,0.10
2023-01-11T07:32:31.907Z,0.47
2023-01-11T07:37:32.161Z,0.20
2023-01-11T07:42:49.844Z,0.10
2023-01-11T07:47:50.348Z,0.32
2023-01-11T07:52:48.304Z,0.00
2023-01-11T07:57:46.744Z,0.47
2023-01-11T08:02:44.426Z,0.47
2023-01-11T08:07:42.547Z,1.10
2023-01-11T08:13:06.590Z,0.30
2023-01-11T08:18:07.653Z,1.00
2023-01-11T08:23:05.988Z,1.20
2023-01-11T08:28:07.865Z,0.55
2023-01-11T08:33:06.459Z,0.98
2023-01-11T08:38:04.141Z,0.32
2023-01-11T08:43:07.464Z,0.73
2023-01-11T08:48:07.950Z,0.43
2023-01-11T08:53:06.550Z,0.17
2023-01-11T08:58:04.793Z,0.17
2023-01-11T09:03:03.806Z,0.35
2023-01-11T09:08:01.459Z,0.20
2023-01-11T09:13:01.217Z,0.10
2023-01-11T09:17:59.443Z,0.25
2023-01-11T09:22:57.064Z,0.00
2023-01-11T09:27:54.379Z,0.10
2023-01-11T09:32:52.529Z,0.25
2023-01-11T09:37:55.978Z,0.20
2023-01-11T09:42:56.992Z,0.00
2023-01-11T09:48:10.720Z,0.32
2023-01-11T09:53:15.854Z,0.43
2023-01-11T09:58:51.127Z,0.65
2023-01-11T10:04:35.683Z,0.47
2023-01-11T10:18:32.763Z,0.30
2023-01-11T10:20:43.595Z,0.20
2023-01-11T10:25:51.130Z,0.22
2023-01-11T10:31:07.740Z,0.20
2023-01-11T10:36:38.096Z,0.22
2023-01-11T10:48:03.559Z,0.57
2023-01-11T10:53:07.851Z,0.17
2023-01-11T10:58:14.947Z,0.47
2023-01-11T11:03:53.018Z,0.20
2023-01-11T11:08:55.889Z,0.22
2023-01-11T11:13:58.417Z,0.38
2023-01-11T11:18:59.311Z,0.20
2023-01-11T11:24:00.341Z,0.10
2023-01-11T11:29:02.974Z,0.35
2023-01-11T11:34:06.358Z,0.08
2023-01-11T11:39:11.182Z,0.73
2023-01-11T11:44:17.315Z,0.83
2023-01-11T11:49:17.498Z,0.30
2023-01-11T11:54:21.432Z,0.63
2023-01-11T11:59:21.877Z,0.10
2023-01-11T12:04:31.629Z,0.65
2023-01-11T12:09:31.262Z,0.10
2023-01-11T12:14:30.264Z,0.75
2023-01-11T12:19:33.751Z,1.00
2023-01-11T12:24:31.258Z,0.65
2023-01-11T12:29:53.648Z,0.30
2023-01-11T12:35:09.712Z,0.95
2023-01-11T12:45:21.098Z,0.40
2023-01-11T12:50:24.552Z,0.75
2023-01-11T12:55:53.686Z,0.65
2023-01-11T13:01:12.020Z,0.13
2023-01-11T13:06:14.211Z,0.52
2023-01-11T13:11:34.843Z,1.10
2023-01-11T13:16:40.881Z,0.25
2023-01-11T13:21:52.908Z,2.53
2023-01-11T13:26:50.816Z,1.73
2023-01-11T13:31:50.431Z,1.13
2023-01-11T13:36:54.579Z,0.85
2023-01-11T13:42:02.832Z,0.57
2023-01-11T13:47:23.718Z,0.45
2023-01-11T13:52:41.288Z,0.57
2023-01-11T13:57:45.748Z,1.00
2023-01-11T14:02:48.396Z,2.10
2023-01-11T14:08:14.780Z,0.70
2023-01-11T14:14:08.067Z,1.23
2023-01-11T14:19:23.383Z,1.00
2023-01-11T14:24:31.333Z,7.80
2023-01-11T14:29:50.508Z,14.25
2023-01-11T14:35:32.633Z,8.68
2023-01-11T14:41:04.886Z,6.70
2023-01-11T14:46:39.244Z,13.95
2023-01-11T14:51:55.399Z,6.18
2023-01-11T14:57:05.713Z,18.98
2023-01-11T15:02:34.220Z,22.25
2023-01-11T15:07:54.437Z,22.17
2023-01-11T15:13:33.898Z,19.70
2023-01-11T15:18:32.226Z,21.95
2023-01-11T15:23:39.964Z,20.83
2023-01-11T15:28:54.561Z,29.13
2023-01-11T15:34:00.957Z,27.92
2023-01-11T15:39:03.323Z,29.38
2023-01-11T15:44:18.955Z,23.98
2023-01-11T15:50:24.301Z,26.55
2023-01-11T15:56:28.127Z,27.98
2023-01-11T16:01:55.580Z,26.15
2023-01-11T16:07:24.983Z,23.20
2023-01-11T16:12:45.526Z,21.83
2023-01-11T16:17:46.250Z,29.85
2023-01-11T16:22:51.780Z,17.15
2023-01-11T16:28:00.142Z,19.05
2023-01-11T16:33:18.411Z,17.17
2023-01-11T16:38:19.698Z,19.73
2023-01-11T16:43:20.686Z,17.15
2023-01-11T16:48:24.496Z,19.77
2023-01-11T16:53:25.465Z,16.33
2023-01-11T16:58:28.267Z,15.85
2023-01-11T17:03:35.325Z,17.23
2023-01-11T17:08:34.728Z,14.07
2023-01-11T17:14:08.211Z,14.95
2023-01-11T17:19:13.327Z,12.85
2023-01-11T17:24:16.179Z,14.43
2023-01-11T17:29:18.509Z,13.60
2023-01-11T17:34:23.626Z,14.98
2023-01-11T17:39:24.925Z,13.87
2023-01-11T17:44:42.057Z,15.00
2023-01-11T17:49:40.960Z,13.30
2023-01-11T17:54:40.888Z,15.27
2023-01-11T17:59:37.941Z,11.82
2023-01-11T18:04:35.343Z,13.18
2023-01-11T18:09:37.664Z,13.80
2023-01-11T18:14:44.545Z,15.43
2023-01-11T18:19:44.169Z,16.52
2023-01-11T18:24:44.580Z,14.52
2023-01-11T18:29:49.296Z,15.35
2023-01-11T18:34:53.322Z,16.23
2023-01-11T18:39:52.571Z,15.98
2023-01-11T18:44:50.930Z,17.40
2023-01-11T18:49:48.998Z,16.08
2023-01-11T18:54:47.016Z,15.40
2023-01-11T18:59:44.874Z,16.63
2023-01-11T19:04:42.126Z,15.57
2023-01-11T19:09:39.294Z,18.90
2023-01-11T19:14:36.694Z,19.17
2023-01-11T19:19:35.719Z,19.52
2023-01-11T19:24:33.352Z,14.07
2023-01-11T19:29:31.087Z,16.20
2023-01-11T19:34:29.704Z,19.23
2023-01-11T19:39:27.460Z,18.38
2023-01-11T19:44:26.783Z,16.17
2023-01-11T19:49:24.084Z,16.15
2023-01-11T19:54:22.748Z,12.48
2023-01-11T19:59:21.296Z,12.25
2023-01-11T20:04:18.398Z,9.27
2023-01-11T20:09:15.286Z,9.52
2023-01-11T20:14:13.857Z,8.88
2023-01-11T20:19:13.203Z,8.50
2023-01-11T20:24:12.617Z,10.30
2023-01-11T20:29:10.616Z,7.68
2023-01-11T20:34:10.340Z,9.80
2023-01-11T20:39:08.977Z,9.75
2023-01-11T20:44:08.182Z,11.25
2023-01-11T20:49:06.509Z,11.30
2023-01-11T20:54:04.380Z,11.15
2023-01-11T20:59:06.709Z,13.07
2023-01-11T21:04:06.201Z,9.10
2023-01-11T21:09:05.658Z,10.68
2023-01-11T21:14:04.510Z,10.85
2023-01-11T21:19:02.689Z,14.18
2023-01-11T21:24:01.578Z,13.57
2023-01-11T21:29:00.358Z,12.75
2023-01-11T21:34:02.850Z,13.13
2023-01-11T21:39:01.989Z,11.77
2023-01-11T21:44:00.452Z,10.95
2023-01-11T21:49:00.446Z,9.50
2023-01-11T21:53:57.959Z,12.02
2023-01-11T21:58:55.198Z,9.27
2023-01-11T22:03:52.200Z,8.60
2023-01-11T22:08:49.931Z,11.90
2023-01-11T22:13:46.862Z,8.82
2023-01-11T22:18:45.382Z,9.07
2023-01-11T22:23:42.325Z,11.77
2023-01-11T22:28:54.906Z,8.27
2023-01-11T22:33:52.139Z,10.55
2023-01-11T22:38:49.259Z,9.43
2023-01-11T22:43:47.438Z,9.88
2023-01-11T22:48:46.315Z,13.35
2023-01-11T22:53:45.875Z,11.18
2023-01-11T22:58:42.673Z,9.38
2023-01-11T23:03:40.491Z,7.65
2023-01-11T23:08:40.317Z,9.90
2023-01-11T23:13:52.607Z,7.68
2023-01-11T23:18:50.331Z,7.60
2023-01-11T23:23:47.735Z,7.95
2023-01-11T23:28:45.504Z,8.02
2023-01-11T23:33:42.599Z,7.20
2023-01-11T23:38:40.722Z,7.97
2023-01-11T23:43:38.187Z,7.82
2023-01-11T23:48:35.126Z,9.20
2023-01-11T23:53:32.059Z,6.68
2023-01-11T23:58:30.755Z,6.50
